Time;durP1;ratioP1;P1;durP2;ratioP2;P2;SDS_P1;SDS_P2;PMS_P1;PMS_P2;Temp;Humidity;BMP_temperature;BMP_pressure;BME280_temperature;BME280_humidity;BME280_pressure;Samples;Min_cycle;Max_cycle;Signal;HPM_P1;HPM_P2
2022/02/11 00:01:07;;;;;;;20.63;13.10;;;5.50;99.90;;;6.47;83.41;98298.69;5201781;28;20556;-65
2022/02/11 00:06:46;;;;;;;21.60;13.13;;;5.50;99.90;;;6.57;82.57;98298.66;5200637;28;20204;-64
2022/02/11 00:09:19;;;;;;;17.17;11.93;;;5.50;99.90;;;6.51;82.74;98291.44;5200294;28;20224;-66
2022/02/11 00:11:52;;;;;;;13.77;9.50;;;5.50;99.90;;;6.51;83.07;98296.50;5196381;28;20224;-65
2022/02/11 00:14:28;;;;;;;25.80;14.13;;;5.50;99.90;;;6.52;82.50;98282.16;5205780;28;20594;-65
2022/02/11 00:17:03;;;;;;;13.63;10.00;;;5.50;99.90;;;6.51;82.82;98291.44;5205480;28;20257;-65
2022/02/11 00:19:36;;;;;;;11.93;10.63;;;5.50;99.90;;;6.46;83.56;98286.75;5204495;28;20610;-64
2022/02/11 00:22:09;;;;;;;10.37;9.13;;;5.60;99.90;;;6.48;83.58;98285.22;5192858;28;20204;-64
2022/02/11 00:24:42;;;;;;;9.93;8.97;;;5.60;99.90;;;6.49;83.03;98281.91;5194875;28;20312;-64
2022/02/11 00:27:49;;;;;;;9.23;8.33;;;5.60;99.90;;;6.51;82.77;98280.41;5194947;28;20216;-65
2022/02/11 00:33:23;;;;;;;26.07;14.43;;;5.60;99.90;;;6.57;82.60;98280.88;5201484;28;20225;-65
2022/02/11 00:35:59;;;;;;;23.07;13.40;;;5.60;99.90;;;6.56;82.58;98281.66;5205260;28;20234;-65
2022/02/11 00:38:44;;;;;;;13.27;10.37;;;5.60;99.90;;;6.51;83.77;98277.84;5193437;28;20225;-65
2022/02/11 00:42:08;;;;;;;10.30;8.37;;;5.50;99.90;;;6.53;83.23;98267.06;5193047;28;20565;-64
2022/02/11 01:04:23;;;;;;;11.77;10.00;;;5.40;99.90;;;6.34;84.25;98276.50;5180795;28;20206;-64
2022/02/11 01:06:57;;;;;;;10.70;9.60;;;5.50;99.90;;;6.29;84.27;98268.50;5185562;28;20198;-64
2022/02/11 01:09:32;;;;;;;13.40;10.37;;;5.40;99.90;;;6.32;84.45;98266.25;5184493;28;20236;-65
2022/02/11 01:12:06;;;;;;;12.63;9.87;;;5.40;99.90;;;6.43;84.48;98269.63;5185482;28;20228;-64
2022/02/11 01:14:46;;;;;;;15.53;11.83;;;5.40;99.90;;;6.45;84.08;98269.75;5185824;28;20194;-64
2022/02/11 01:17:29;;;;;;;10.97;8.70;;;5.40;99.90;;;6.47;83.81;98270.78;5184559;28;20194;-64
2022/02/11 01:20:08;;;;;;;8.97;8.10;;;5.40;99.90;;;6.47;83.89;98283.47;5185598;28;20284;-64
2022/02/11 01:23:01;;;;;;;9.73;8.13;;;5.40;99.90;;;6.47;83.30;98291.09;5185333;28;20555;-65
2022/02/11 01:25:51;;;;;;;8.63;7.80;;;5.40;99.90;;;6.41;83.99;98295.66;5181594;28;20210;-65
2022/02/11 01:28:33;;;;;;;7.90;7.10;;;5.40;99.90;;;6.50;83.34;98296.41;5183171;28;20205;-65
2022/02/11 01:31:16;;;;;;;7.97;7.37;;;5.50;99.90;;;6.41;83.57;98282.94;5184576;28;20226;-65
2022/02/11 01:34:08;;;;;;;9.10;8.23;;;5.50;99.90;;;6.46;82.08;98279.13;5183525;28;20206;-65
2022/02/11 01:36:55;;;;;;;9.77;8.77;;;5.60;99.90;;;6.46;80.84;98291.84;5182884;28;20217;-65
2022/02/11 01:40:02;;;;;;;9.23;8.33;;;5.70;99.90;;;6.52;80.54;98283.06;5184342;28;20203;-65
2022/02/11 01:48:45;;;;;;;10.13;9.00;;;5.90;99.90;;;6.64;79.28;98288.22;5172046;28;20279;-65
2022/02/11 01:51:29;;;;;;;10.93;9.03;;;5.90;99.90;;;6.82;78.71;98285.34;5178146;28;20226;-64
2022/02/11 01:54:09;;;;;;;10.40;9.40;;;6.00;99.90;;;6.82;77.95;98277.75;5182009;28;20206;-65
2022/02/11 01:56:54;;;;;;;11.03;9.77;;;6.10;99.90;;;6.84;78.00;98277.09;5185070;28;20220;-65
2022/02/11 02:20:15;;;;;;;10.03;9.13;;;6.10;99.90;;;6.87;78.28;98279.00;5182823;28;20207;-65
2022/02/11 02:22:56;;;;;;;9.97;8.93;;;6.10;99.90;;;6.91;78.08;98274.25;5183757;28;20198;-65
2022/02/11 02:25:36;;;;;;;10.03;9.23;;;6.00;99.90;;;6.90;79.00;98272.47;5180906;28;20202;-65
2022/02/11 02:28:51;;;;;;;11.63;9.03;;;6.00;99.90;;;6.91;78.36;98273.38;5182706;28;20195;-65
2022/02/11 02:37:22;;;;;;;9.30;8.50;;;6.10;99.90;;;6.87;78.52;98271.38;5186574;28;20201;-65
2022/02/11 02:57:09;;;;;;;7.20;6.50;;;6.20;99.90;;;6.84;76.11;98273.63;5184747;28;20874;-65
2022/02/11 03:00:04;;;;;;;6.53;5.93;;;6.10;99.90;;;6.87;78.29;98267.16;5190175;28;20198;-65
2022/02/11 03:34:37;;;;;;;10.37;7.93;;;5.30;99.90;;;5.75;90.57;98308.94;5179536;28;20257;-63
2022/02/11 03:34:43;;;;;;;8.00;7.23;;;5.20;99.90;;;5.80;91.27;98305.09;5180910;28;20611;-64
2022/02/11 03:49:14;;;;;;;10.07;9.00;;;4.80;99.90;;;5.39;94.83;98339.69;5185576;28;20215;-67
2022/02/11 03:57:54;;;;;;;10.93;9.20;;;4.60;99.90;;;5.43;96.14;98356.91;5183443;28;20205;-65
2022/02/11 04:55:22;;;;;;;4.13;3.93;;;3.40;99.90;;;3.89;96.11;98513.66;5239653;28;20201;-65
2022/02/11 05:00:46;;;;;;;4.43;4.23;;;3.30;99.90;;;3.92;97.37;98524.06;5232378;28;20636;-64
2022/02/11 05:03:21;;;;;;;4.03;3.83;;;3.40;99.90;;;4.01;97.12;98530.88;5235366;28;20704;-65
2022/02/11 05:05:54;;;;;;;4.40;4.20;;;3.40;99.90;;;3.98;96.96;98535.66;5235905;28;20206;-65
2022/02/11 05:08:27;;;;;;;5.00;4.70;;;3.30;99.90;;;3.89;97.16;98534.78;5234710;28;20609;-63
2022/02/11 05:11:02;;;;;;;5.00;4.70;;;3.30;99.90;;;3.91;98.07;98543.41;5235161;28;20221;-65
2022/02/11 05:13:36;;;;;;;4.80;4.50;;;3.30;99.90;;;3.96;97.44;98544.75;5237134;28;20201;-65
2022/02/11 05:16:09;;;;;;;4.93;4.63;;;3.30;99.90;;;4.04;98.01;98546.34;5237047;28;20209;-65
2022/02/11 05:18:43;;;;;;;4.60;4.40;;;3.40;99.90;;;3.85;96.95;98555.47;5229969;28;20190;-65
2022/02/11 05:21:16;;;;;;;4.23;4.03;;;3.30;99.90;;;3.94;97.53;98560.50;5231531;28;20243;-64
2022/02/11 05:23:49;;;;;;;4.67;4.47;;;3.30;99.90;;;3.78;97.07;98565.78;5234794;28;20680;-64
2022/02/11 05:26:22;;;;;;;4.77;4.47;;;3.20;99.90;;;3.80;96.97;98559.22;5233922;28;20197;-66
2022/02/11 05:28:55;;;;;;;5.07;4.77;;;3.10;99.90;;;3.67;97.60;98566.41;5237406;28;20313;-65
2022/02/11 05:31:27;;;;;;;3.90;3.70;;;3.10;99.90;;;3.65;98.53;98567.88;5237020;28;20233;-66
2022/02/11 05:34:02;;;;;;;4.63;4.43;;;3.10;99.90;;;3.71;98.85;98573.50;5235681;28;20212;-66
2022/02/11 05:36:35;;;;;;;4.90;4.70;;;3.10;99.90;;;3.70;98.62;98581.84;5234262;28;20196;-66
2022/02/11 05:39:07;;;;;;;6.03;5.63;;;3.10;99.90;;;3.78;98.93;98586.88;5227050;28;20668;-66
2022/02/11 05:41:40;;;;;;;5.30;5.00;;;3.10;99.90;;;3.66;99.46;98588.22;5223420;28;20683;-66
2022/02/11 05:44:13;;;;;;;5.33;5.03;;;3.10;99.90;;;3.70;99.39;98602.06;5223551;28;20668;-66
2022/02/11 05:46:46;;;;;;;6.20;5.70;;;3.10;99.90;;;3.67;99.67;98617.84;5219916;28;20202;-66
2022/02/11 05:49:21;;;;;;;6.13;5.67;;;3.00;99.90;;;3.71;100.00;98619.00;5223206;28;20242;-66
2022/02/11 05:51:55;;;;;;;6.33;5.97;;;3.10;99.90;;;3.70;100.00;98612.19;5216888;28;20272;-66
2022/02/11 05:54:28;;;;;;;6.97;6.47;;;3.10;99.90;;;3.74;100.00;98634.47;5225485;28;20209;-66
2022/02/11 05:57:01;;;;;;;6.90;6.50;;;3.10;99.90;;;3.70;100.00;98645.06;5220549;28;20202;-66
2022/02/11 05:59:34;;;;;;;6.53;6.13;;;3.10;99.90;;;3.72;100.00;98656.19;5222977;28;20676;-66
2022/02/11 06:02:07;;;;;;;6.50;6.07;;;3.10;99.90;;;3.65;100.00;98662.28;5215506;28;20199;-66
2022/02/11 06:04:41;;;;;;;6.63;6.23;;;3.10;99.90;;;3.76;100.00;98664.22;5227289;28;20213;-66
2022/02/11 06:07:15;;;;;;;7.50;7.00;;;3.10;99.90;;;3.77;100.00;98666.00;5214184;28;20200;-66
2022/02/11 06:09:48;;;;;;;8.07;7.57;;;3.10;99.90;;;3.75;100.00;98671.63;5214280;28;20215;-66
2022/02/11 06:12:21;;;;;;;7.03;6.53;;;3.10;99.90;;;3.68;100.00;98684.44;5216897;28;20218;-66
2022/02/11 06:14:54;;;;;;;7.40;6.90;;;3.10;99.90;;;3.66;100.00;98690.97;5210001;28;20205;-66
2022/02/11 06:17:27;;;;;;;7.73;7.23;;;3.00;99.90;;;3.65;100.00;98691.75;5221685;28;20652;-65
2022/02/11 06:20:02;;;;;;;7.80;7.30;;;3.00;99.90;;;3.60;100.00;98697.22;5217350;28;20609;-65
2022/02/11 06:22:35;;;;;;;9.37;8.63;;;3.00;99.90;;;3.60;100.00;98709.84;5220636;28;20198;-66
2022/02/11 06:25:09;;;;;;;8.20;7.70;;;3.00;99.90;;;3.64;100.00;98716.13;5225255;28;20202;-65
2022/02/11 06:27:46;;;;;;;8.73;8.13;;;3.00;99.90;;;3.63;100.00;98723.53;5211729;28;20694;-66
2022/02/11 06:30:19;;;;;;;7.17;6.67;;;3.10;99.90;;;3.63;100.00;98724.44;5224233;28;20685;-66
2022/02/11 06:32:52;;;;;;;7.10;6.60;;;3.00;99.90;;;3.56;100.00;98730.53;5222407;28;20887;-66
2022/02/11 06:35:31;;;;;;;8.40;7.80;;;2.90;99.90;;;3.56;100.00;98740.63;5224929;28;20202;-66
2022/02/11 06:38:04;;;;;;;7.63;7.10;;;3.00;99.90;;;3.52;100.00;98751.22;5221207;28;20596;-66
2022/02/11 06:40:37;;;;;;;7.57;7.07;;;3.00;99.90;;;3.56;100.00;98749.88;5219315;28;20570;-66
2022/02/11 06:43:10;;;;;;;8.40;7.80;;;3.00;99.90;;;3.66;100.00;98756.69;5223018;28;20194;-66
2022/02/11 06:45:43;;;;;;;8.20;7.57;;;3.00;99.90;;;3.69;100.00;98764.59;5219624;28;20289;-65
2022/02/11 06:48:21;;;;;;;7.60;7.07;;;3.00;99.90;;;3.57;100.00;98770.22;5221536;28;20204;-64
2022/02/11 06:50:56;;;;;;;8.50;7.70;;;3.00;99.90;;;3.56;100.00;98770.97;5218397;28;20221;-64
2022/02/11 06:53:29;;;;;;;7.77;7.13;;;3.00;99.90;;;3.55;100.00;98791.94;5217224;28;20569;-66
2022/02/11 06:56:02;;;;;;;8.10;7.40;;;2.90;99.90;;;3.53;100.00;98788.38;5221846;28;20198;-66
2022/02/11 06:58:35;;;;;;;8.97;8.27;;;2.90;99.90;;;3.55;100.00;98794.47;5218787;28;20205;-66
2022/02/11 07:01:08;;;;;;;8.67;7.97;;;2.90;99.90;;;3.54;100.00;98810.34;5217641;28;20215;-66
2022/02/11 07:03:42;;;;;;;8.97;8.27;;;2.90;99.90;;;3.54;100.00;98817.94;5216463;28;20657;-66
2022/02/11 07:06:16;;;;;;;10.30;9.37;;;2.90;99.90;;;3.58;100.00;98820.03;5215911;28;20191;-66
2022/02/11 07:08:49;;;;;;;10.70;9.67;;;3.00;99.90;;;3.73;100.00;98835.84;5219946;28;20221;-66
2022/02/11 07:11:22;;;;;;;10.67;9.77;;;3.10;99.90;;;3.67;100.00;98821.69;5223753;28;20232;-64
2022/02/11 07:13:55;;;;;;;12.57;10.93;;;3.10;99.90;;;3.72;100.00;98838.19;5208936;28;20249;-65
2022/02/11 07:16:28;;;;;;;11.50;10.40;;;3.00;99.90;;;3.71;100.00;98839.84;5209846;28;20308;-65
2022/02/11 07:19:01;;;;;;;11.00;10.03;;;3.10;99.90;;;3.69;100.00;98842.94;5222200;28;20334;-66
2022/02/11 07:21:35;;;;;;;11.57;10.13;;;3.10;99.90;;;3.76;100.00;98846.25;5223369;28;20468;-65
2022/02/11 07:24:09;;;;;;;11.63;10.70;;;3.10;99.90;;;3.79;100.00;98850.72;5210196;28;20227;-65
2022/02/11 07:26:42;;;;;;;11.23;10.23;;;3.10;99.90;;;3.85;100.00;98861.44;5221676;28;20212;-65
2022/02/11 07:29:16;;;;;;;11.87;10.73;;;3.10;99.90;;;3.80;100.00;98870.19;5213422;28;20222;-65
2022/02/11 07:31:49;;;;;;;11.43;10.37;;;3.10;99.90;;;3.64;100.00;98875.38;5213408;28;20218;-65
2022/02/11 07:34:22;;;;;;;11.67;10.50;;;2.90;99.90;;;3.58;100.00;98872.22;5216520;28;20213;-65
2022/02/11 07:36:57;;;;;;;11.53;9.93;;;2.80;99.90;;;3.58;100.00;98885.75;5219476;28;20211;-65
2022/02/11 07:39:50;;;;;;;10.80;9.83;;;2.80;99.90;;;3.41;100.00;98890.75;5217479;28;20229;-66
2022/02/11 07:42:23;;;;;;;11.80;10.63;;;2.70;99.90;;;3.41;100.00;98910.09;5215774;28;20576;-65
2022/02/11 07:44:57;;;;;;;11.93;10.73;;;2.70;99.90;;;3.42;100.00;98907.69;5218180;28;20205;-65
2022/02/11 07:47:30;;;;;;;11.60;10.50;;;2.70;99.90;;;3.44;100.00;98915.44;5220356;28;20199;-65
2022/02/11 07:50:04;;;;;;;12.10;10.90;;;2.80;99.90;;;3.49;100.00;98920.22;5215760;28;20321;-65
2022/02/11 07:52:39;;;;;;;12.70;11.40;;;2.80;99.90;;;3.62;100.00;98937.50;5213024;28;20698;-65
2022/02/11 07:55:12;;;;;;;12.33;11.33;;;2.90;99.90;;;3.69;100.00;98939.94;5213788;28;20193;-65
2022/02/11 07:57:45;;;;;;;12.33;11.23;;;3.00;99.90;;;3.76;100.00;98936.38;5220822;28;20212;-65
2022/02/11 08:00:18;;;;;;;12.17;11.00;;;3.00;99.90;;;3.88;100.00;98946.81;5222705;28;20290;-66
2022/02/11 08:02:51;;;;;;;12.57;10.83;;;3.10;99.90;;;3.98;100.00;98955.50;5221874;28;20286;-65
2022/02/11 08:05:24;;;;;;;12.60;11.40;;;3.20;99.90;;;4.07;100.00;98964.00;5215344;28;20569;-66
2022/02/11 08:07:59;;;;;;;13.23;11.83;;;3.30;99.90;;;4.16;100.00;98970.72;5219450;28;20202;-65
2022/02/11 08:10:32;;;;;;;11.43;10.33;;;3.40;99.90;;;4.27;100.00;98980.28;5219924;28;20230;-65
2022/02/11 08:13:05;;;;;;;11.37;10.23;;;3.50;99.90;;;4.42;100.00;98989.38;5220890;28;20200;-66
2022/02/11 08:15:38;;;;;;;13.63;12.27;;;3.60;99.90;;;4.58;100.00;98993.41;5216864;28;20208;-64
2022/02/11 08:18:11;;;;;;;10.70;9.70;;;3.90;99.90;;;4.73;100.00;98984.78;5206497;28;20201;-64
2022/02/11 08:21:04;;;;;;;9.47;8.57;;;3.90;99.90;;;4.82;98.92;98998.34;5211466;28;20587;-66
2022/02/11 08:23:38;;;;;;;9.13;8.23;;;4.00;99.90;;;4.83;97.68;99000.13;5219013;28;20306;-66
2022/02/11 08:26:11;;;;;;;9.93;9.03;;;4.00;99.90;;;4.90;98.67;99004.16;5218658;28;20205;-66
2022/02/11 08:28:45;;;;;;;9.90;8.93;;;4.10;99.90;;;4.93;97.79;99015.47;5211366;28;20211;-65
2022/02/11 08:31:18;;;;;;;8.53;7.63;;;4.20;99.90;;;4.97;97.78;99016.66;5216523;28;20231;-66
2022/02/11 08:33:51;;;;;;;9.60;8.70;;;4.20;99.90;;;4.99;98.51;99027.84;5221987;28;20201;-65
2022/02/11 08:36:24;;;;;;;8.87;8.17;;;4.20;99.90;;;5.06;97.42;99027.69;5216494;28;20196;-65
2022/02/11 08:38:59;;;;;;;10.27;9.13;;;4.20;99.90;;;5.11;97.89;99031.56;5216625;28;20201;-65
2022/02/11 08:41:32;;;;;;;9.50;8.53;;;4.20;99.90;;;5.00;94.20;99042.28;5211576;28;20219;-65
2022/02/11 08:44:05;;;;;;;9.00;8.10;;;4.10;99.90;;;5.10;96.58;99044.09;5222818;28;20637;-65
2022/02/11 08:46:39;;;;;;;9.07;8.23;;;4.20;99.90;;;5.06;96.40;99049.59;5216237;28;20549;-65
2022/02/11 08:49:13;;;;;;;8.60;7.90;;;4.20;99.90;;;5.13;97.68;99054.53;5216234;28;20295;-64
2022/02/11 08:51:46;;;;;;;8.67;7.77;;;4.20;99.90;;;5.18;97.58;99055.88;5221833;28;20223;-66
2022/02/11 08:54:20;;;;;;;8.60;7.90;;;4.30;99.90;;;5.19;96.40;99063.63;5221501;28;20199;-66
2022/02/11 08:56:53;;;;;;;9.40;7.53;;;4.30;99.90;;;5.41;94.65;99068.25;5222304;28;20270;-66
2022/02/11 08:59:26;;;;;;;7.77;7.07;;;4.50;99.90;;;5.46;94.56;99076.28;5219104;28;20204;-66
2022/02/11 09:01:59;;;;;;;8.60;7.10;;;4.60;99.90;;;5.39;90.17;99085.81;5216161;28;20221;-65
2022/02/11 09:04:32;;;;;;;7.47;6.87;;;4.50;99.90;;;5.29;91.80;99089.84;5217201;28;20200;-66
2022/02/11 09:07:05;;;;;;;7.03;6.53;;;4.40;99.90;;;5.36;93.96;99095.69;5216893;28;20216;-65
2022/02/11 09:09:40;;;;;;;7.63;6.80;;;4.40;99.90;;;5.40;92.05;99095.22;5217903;28;20217;-66
2022/02/11 09:12:13;;;;;;;7.33;6.67;;;4.30;99.90;;;5.43;90.46;99098.03;5218132;28;20199;-66
2022/02/11 09:14:46;;;;;;;7.73;6.97;;;4.30;99.90;;;5.36;90.32;99090.59;5217776;28;20741;-61
2022/02/11 09:17:19;;;;;;;7.30;6.60;;;4.30;99.90;;;5.43;90.18;99097.16;5226920;28;20197;-66
2022/02/11 09:19:52;;;;;;;10.40;6.80;;;4.50;99.90;;;5.55;90.58;99095.81;5215982;28;20222;-66
2022/02/11 09:22:25;;;;;;;8.17;6.83;;;4.80;99.90;;;5.86;88.53;99104.69;5219487;28;20205;-63
2022/02/11 09:24:59;;;;;;;7.93;6.40;;;5.20;99.90;;;6.19;86.62;99107.81;5219717;28;20198;-63
2022/02/11 09:27:33;;;;;;;6.97;5.80;;;5.40;99.90;;;6.35;85.83;99121.16;5226000;28;20690;-63
2022/02/11 09:30:07;;;;;;;8.00;6.13;;;5.50;99.90;;;6.42;84.11;99127.72;5217886;28;20227;-63
2022/02/11 09:32:42;;;;;;;9.17;6.13;;;5.50;99.90;;;6.30;83.30;99135.97;5224376;28;20193;-63
2022/02/11 09:35:17;;;;;;;6.80;5.90;;;5.40;99.90;;;6.12;82.69;99134.22;5218320;28;20228;-63
2022/02/11 09:37:55;;;;;;;8.43;5.87;;;5.20;99.90;;;5.97;84.06;99130.25;5220838;28;20203;-63
2022/02/11 09:40:30;;;;;;;6.43;5.30;;;5.10;99.90;;;6.13;84.83;99128.41;5222774;28;20217;-63
2022/02/11 09:43:04;;;;;;;6.47;5.10;;;5.20;99.90;;;6.25;80.89;99136.31;5222802;28;20205;-63
2022/02/11 09:45:38;;;;;;;5.93;5.43;;;5.30;99.90;;;6.46;81.25;99129.78;5222347;28;20203;-63
2022/02/11 09:48:11;;;;;;;6.40;5.70;;;5.50;99.90;;;6.62;79.46;99137.22;5220088;28;20193;-63
2022/02/11 09:50:44;;;;;;;5.43;4.90;;;5.80;99.90;;;6.73;78.64;99132.38;5225528;28;20224;-63
2022/02/11 09:53:28;;;;;;;5.43;4.90;;;6.10;99.90;;;6.80;75.63;99138.00;5222940;28;20193;-64
2022/02/11 09:56:04;;;;;;;5.33;4.77;;;6.20;99.90;;;6.94;77.26;99142.72;5217813;28;20204;-63
2022/02/11 09:58:59;;;;;;;5.30;4.37;;;6.20;99.90;;;6.95;75.38;99144.47;5216202;28;20707;-63
2022/02/11 10:01:32;;;;;;;6.27;4.87;;;6.30;99.90;;;7.13;74.12;99156.34;5207771;28;20585;-63
2022/02/11 10:04:10;;;;;;;5.33;4.73;;;6.50;99.90;;;7.26;72.85;99148.19;5218443;28;20292;-63
2022/02/11 10:06:46;;;;;;;5.70;4.97;;;6.60;99.90;;;7.17;71.92;99153.31;5210536;28;20665;-63
2022/02/11 10:09:22;;;;;;;5.63;4.30;;;6.50;99.90;;;7.21;72.18;99152.88;5214093;28;20201;-63
2022/02/11 10:11:57;;;;;;;5.13;4.00;;;6.40;99.90;;;7.17;72.59;99157.53;5218204;28;20231;-63
2022/02/11 10:14:34;;;;;;;5.33;4.37;;;6.30;99.90;;;7.11;73.50;99156.97;5219040;28;20240;-63
2022/02/11 10:17:15;;;;;;;6.57;4.27;;;6.20;99.90;;;7.12;73.03;99159.63;5220796;28;20270;-63
2022/02/11 10:19:51;;;;;;;8.13;4.63;;;6.10;99.90;;;6.94;73.88;99160.50;5219425;28;20201;-63
2022/02/11 10:22:26;;;;;;;6.03;4.40;;;6.00;99.90;;;6.98;72.53;99160.94;5224307;28;20295;-63
2022/02/11 10:25:00;;;;;;;7.77;4.70;;;6.00;99.90;;;6.83;71.56;99168.78;5219497;28;20208;-63
2022/02/11 10:27:36;;;;;;;6.17;3.93;;;5.90;99.90;;;6.70;73.04;99172.72;5222125;28;20201;-63
2022/02/11 10:30:11;;;;;;;5.70;3.43;;;5.80;99.90;;;6.91;69.57;99172.94;5218554;28;20217;-63
2022/02/11 10:32:47;;;;;;;7.27;3.63;;;5.60;99.90;;;6.68;70.28;99176.75;5212757;28;20661;-63
2022/02/11 10:35:28;;;;;;;5.97;4.07;;;5.60;99.90;;;6.40;70.51;99180.00;5216728;28;20209;-63
2022/02/11 10:38:09;;;;;;;4.70;3.83;;;5.40;99.90;;;6.47;71.48;99180.75;5222668;28;20236;-63
2022/02/11 10:40:45;;;;;;;4.73;3.90;;;5.50;99.90;;;6.54;72.32;99179.66;5222668;28;20219;-63
2022/02/11 10:43:22;;;;;;;5.67;3.70;;;5.50;99.90;;;6.60;71.94;99180.22;5215553;28;20206;-63
2022/02/11 10:45:59;;;;;;;5.37;3.87;;;5.60;99.90;;;6.82;70.14;99182.25;5216728;28;20616;-63
2022/02/11 10:48:34;;;;;;;6.37;4.30;;;5.60;99.90;;;6.90;68.99;99186.41;5214374;28;20201;-63
2022/02/11 10:51:08;;;;;;;4.80;4.00;;;5.60;99.90;;;6.65;68.11;99183.22;5225258;28;20615;-63
2022/02/11 10:53:43;;;;;;;4.97;4.30;;;5.60;99.90;;;6.64;70.43;99187.41;5217892;28;20578;-63
2022/02/11 10:56:16;;;;;;;5.93;4.07;;;5.60;99.90;;;6.76;71.21;99182.56;5216665;28;20600;-63
2022/02/11 10:58:58;;;;;;;5.33;4.00;;;5.60;99.90;;;6.79;68.86;99176.88;5221398;28;20202;-63
2022/02/11 11:01:32;;;;;;;5.80;4.90;;;5.60;99.90;;;6.61;67.28;99181.13;5219343;28;20561;-63
2022/02/11 11:04:05;;;;;;;9.07;4.83;;;5.50;99.90;;;6.81;68.36;99182.97;5219451;28;20583;-63
2022/02/11 11:06:38;;;;;;;6.00;4.33;;;5.60;99.90;;;6.79;69.23;99176.88;5219126;28;20738;-63
2022/02/11 11:09:11;;;;;;;5.53;4.67;;;5.70;99.90;;;6.83;69.14;99171.31;5218502;28;20197;-64
2022/02/11 11:11:45;;;;;;;5.87;4.10;;;5.70;99.90;;;6.83;69.26;99184.91;5219438;28;20228;-64
2022/02/11 11:14:23;;;;;;;6.30;4.37;;;5.60;99.90;;;6.42;69.50;99178.50;5221382;22;20307;-65
2022/02/11 11:17:00;;;;;;;6.00;4.80;;;5.50;99.90;;;6.34;69.45;99185.41;5201674;28;20203;-64
2022/02/11 11:19:35;;;;;;;5.63;3.73;;;5.40;99.90;;;6.36;67.40;99172.88;5202217;28;20198;-64
2022/02/11 11:22:13;;;;;;;4.70;4.23;;;5.40;99.90;;;6.45;67.75;99168.66;5208604;28;20296;-65
2022/02/11 11:24:53;;;;;;;4.87;4.33;;;5.40;99.90;;;6.61;68.13;99169.34;5180557;28;20708;-64
2022/02/11 11:27:43;;;;;;;5.03;4.47;;;5.50;99.90;;;6.52;69.38;99173.53;5176469;28;20232;-64
2022/02/11 11:30:28;;;;;;;4.47;3.70;;;5.50;99.90;;;6.68;69.07;99169.16;5180936;28;20209;-64
2022/02/11 11:33:21;;;;;;;4.63;4.07;;;5.70;99.90;;;6.98;67.23;99171.09;5197621;28;20244;-65
2022/02/11 11:36:09;;;;;;;5.43;3.93;;;5.90;99.90;;;7.02;68.09;99174.81;5180015;28;20210;-64
2022/02/11 11:38:46;;;;;;;7.20;4.57;;;6.00;99.90;;;7.11;68.26;99180.72;5188695;28;20205;-65
2022/02/11 11:41:22;;;;;;;6.47;4.20;;;6.10;99.90;;;7.14;68.83;99173.38;5169000;28;20222;-65
2022/02/11 11:43:58;;;;;;;7.60;4.67;;;6.00;99.90;;;7.27;67.38;99188.13;5178702;28;20231;-65
2022/02/11 11:46:36;;;;;;;4.70;4.30;;;6.00;99.90;;;7.06;69.31;99181.94;5183080;28;20294;-65
2022/02/11 11:49:14;;;;;;;8.73;6.40;;;6.00;99.90;;;7.31;66.96;99192.72;5182756;28;20615;-64
2022/02/11 11:52:06;;;;;;;5.03;4.00;;;6.00;99.90;;;7.36;66.19;99199.13;5180244;28;20223;-64
2022/02/11 11:54:39;;;;;;;5.10;4.60;;;6.00;99.90;;;7.16;68.48;99192.22;5178517;28;20710;-65
2022/02/11 11:57:17;;;;;;;6.67;4.97;;;6.00;99.90;;;6.78;68.54;99203.91;5172526;28;20198;-64
2022/02/11 11:59:52;;;;;;;5.80;4.47;;;5.90;99.90;;;6.83;68.27;99204.34;5169270;28;20190;-64
2022/02/11 12:02:29;;;;;;;5.10;4.40;;;5.90;99.90;;;6.79;69.16;99204.84;5172186;28;20567;-65
2022/02/11 12:05:04;;;;;;;5.03;4.63;;;5.80;99.90;;;7.08;67.03;99202.44;5179183;28;20226;-65
2022/02/11 12:07:38;;;;;;;5.37;4.50;;;5.70;99.90;;;6.98;67.85;99200.69;5166840;28;20333;-65
2022/02/11 12:10:12;;;;;;;4.80;4.30;;;5.60;99.90;;;6.73;68.38;99203.50;5165455;28;20195;-64
2022/02/11 12:12:45;;;;;;;7.67;5.10;;;5.60;99.90;;;6.93;67.11;99207.00;5172020;28;20231;-64
2022/02/11 12:15:18;;;;;;;7.37;4.43;;;5.70;99.90;;;6.95;67.40;99195.31;5169596;28;20227;-64
2022/02/11 12:17:54;;;;;;;6.50;4.43;;;5.60;99.90;;;6.81;68.16;99200.75;5169571;28;20206;-64
2022/02/11 12:20:29;;;;;;;6.87;6.00;;;5.70;99.90;;;6.84;69.27;99201.03;5177454;28;20203;-65
2022/02/11 12:28:47;;;;;;;4.17;3.80;;;5.80;99.90;;;6.83;67.18;99195.06;5174990;28;20210;-65
2022/02/11 12:31:24;;;;;;;4.97;3.60;;;5.80;99.90;;;6.92;66.69;99208.63;5185591;28;20190;-65
2022/02/11 12:34:15;;;;;;;4.63;4.23;;;5.90;99.90;;;6.99;64.26;99207.56;5176371;28;20269;-65
2022/02/11 12:36:49;;;;;;;7.87;3.47;;;5.90;99.90;;;6.90;64.71;99216.91;5169573;28;20207;-65
2022/02/11 12:39:24;;;;;;;4.07;3.30;;;5.90;99.90;;;6.86;63.99;99205.53;5172104;28;20203;-65
2022/02/11 12:41:57;;;;;;;4.03;3.73;;;5.90;99.90;;;6.80;65.31;99209.16;5177857;28;20220;-64
2022/02/11 12:44:32;;;;;;;4.33;3.70;;;5.90;99.90;;;6.93;64.16;99219.72;5172168;28;20713;-65
2022/02/11 12:47:06;;;;;;;3.90;3.40;;;5.80;99.90;;;6.90;63.38;99220.31;5179477;28;20687;-65
2022/02/11 12:49:51;;;;;;;4.53;3.33;;;5.90;99.90;;;6.77;63.85;99210.66;5181644;28;20234;-65
2022/02/11 12:52:28;;;;;;;4.57;3.73;;;5.80;99.90;;;6.80;63.72;99212.59;5184316;28;20348;-65
2022/02/11 12:55:10;;;;;;;4.50;3.43;;;5.80;99.90;;;6.65;64.64;99206.06;5182213;28;20214;-65
2022/02/11 12:57:46;;;;;;;3.50;3.20;;;5.80;99.90;;;6.82;65.20;99212.75;5178099;28;20576;-65
2022/02/11 13:00:24;;;;;;;4.70;3.67;;;5.90;99.90;;;7.16;62.91;99199.84;5202554;28;20598;-65
2022/02/11 13:03:00;;;;;;;5.67;3.77;;;6.00;99.90;;;7.17;62.94;99199.09;5172530;28;20201;-65
2022/02/11 13:05:39;;;;;;;4.90;3.90;;;6.10;99.90;;;7.26;62.48;99201.56;5173197;28;20207;-65
2022/02/11 13:08:20;;;;;;;4.53;3.40;;;6.10;99.90;;;7.26;62.85;99204.13;5176373;28;20202;-65
2022/02/11 13:10:58;;;;;;;6.60;3.47;;;6.20;99.90;;;7.36;61.53;99198.25;5182632;28;20228;-65
2022/02/11 13:13:32;;;;;;;3.80;3.37;;;6.20;99.90;;;7.42;60.99;99202.22;5179982;28;20673;-65
2022/02/11 13:16:06;;;;;;;5.43;3.10;;;6.20;99.90;;;7.48;61.03;99201.00;5177411;28;20199;-65
2022/02/11 13:18:42;;;;;;;6.13;3.43;;;6.20;99.90;;;7.56;59.99;99206.03;5174850;28;20672;-65
2022/02/11 13:21:20;;;;;;;4.10;3.27;;;6.30;99.90;;;7.60;58.04;99190.25;5173155;28;20646;-66
2022/02/11 13:23:53;;;;;;;4.87;3.87;;;6.30;99.90;;;7.59;59.00;99196.13;5175502;28;20217;-65
2022/02/11 13:26:26;;;;;;;4.07;3.20;;;6.30;99.90;;;7.49;59.07;99197.69;5184712;28;20697;-65
2022/02/11 13:28:59;;;;;;;3.57;3.10;;;6.30;99.90;;;7.52;58.50;99203.94;5181425;28;20249;-65
2022/02/11 13:31:47;;;;;;;4.23;3.40;;;6.30;99.90;;;7.33;58.65;99197.97;5177910;28;20293;-65
2022/02/11 13:34:20;;;;;;;6.97;4.43;;;6.10;99.90;;;7.40;58.36;99190.13;5178992;28;20228;-65
2022/02/11 13:37:04;;;;;;;6.07;3.73;;;6.20;99.90;;;7.26;59.98;99198.16;5176761;28;20198;-65
2022/02/11 13:39:37;;;;;;;3.33;3.13;;;6.20;99.90;;;7.08;60.17;99193.16;5177320;28;20194;-65
2022/02/11 13:42:15;;;;;;;6.80;4.23;;;6.20;99.90;;;7.32;60.56;99198.69;5174505;28;20187;-65
2022/02/11 13:45:01;;;;;;;4.57;4.17;;;6.30;99.90;;;7.36;59.82;99194.03;5188992;28;20289;-65
2022/02/11 13:47:35;;;;;;;8.03;4.90;;;6.30;99.90;;;7.46;59.52;99198.31;5186359;28;20205;-65
2022/02/11 13:50:09;;;;;;;6.27;4.80;;;6.40;99.90;;;7.43;60.00;99198.03;5187849;28;20202;-65
2022/02/11 13:53:04;;;;;;;5.87;4.07;;;6.40;99.90;;;7.48;58.66;99196.81;5180025;28;20794;-66
2022/02/11 13:55:52;;;;;;;4.13;3.50;;;6.30;99.90;;;7.37;59.01;99207.66;5177505;28;20209;-65
2022/02/11 13:58:26;;;;;;;4.27;3.83;;;6.30;99.90;;;7.23;59.77;99209.81;5181142;28;20207;-65
2022/02/11 14:00:59;;;;;;;4.43;3.70;;;6.20;99.90;;;7.16;60.19;99215.09;5191166;28;20194;-65
2022/02/11 14:03:32;;;;;;;5.47;4.30;;;6.10;99.90;;;7.34;58.97;99213.34;5196627;28;20268;-65
2022/02/11 14:06:07;;;;;;;5.03;3.77;;;6.30;99.90;;;7.34;60.17;99210.81;5186859;28;20298;-66
2022/02/11 14:08:43;;;;;;;5.40;4.37;;;6.30;99.90;;;7.28;59.45;99211.91;5183869;28;20212;-65
2022/02/11 14:11:19;;;;;;;5.93;4.83;;;6.30;99.90;;;7.40;58.81;99219.00;5192161;28;20198;-66
2022/02/11 14:13:52;;;;;;;6.70;5.00;;;6.30;99.90;;;7.35;59.35;99217.66;5187533;28;21133;-66